sensor_id;sensor_type;location;lat;lon;timestamp;P1;durP1;ratioP1;P2;durP2;ratioP2
45887;SDS011;31595;51.418;7.572;2024-02-26T00:01:13;4.40;;;2.88;;
45887;SDS011;31595;51.418;7.572;2024-02-26T00:03:40;3.75;;;2.75;;
45887;SDS011;31595;51.418;7.572;2024-02-26T00:06:07;4.13;;;2.58;;
45887;SDS011;31595;51.418;7.572;2024-02-26T00:08:35;3.95;;;2.33;;
45887;SDS011;31595;51.418;7.572;2024-02-26T00:11:02;3.80;;;2.40;;
45887;SDS011;31595;51.418;7.572;2024-02-26T00:13:29;4.07;;;2.30;;
45887;SDS011;31595;51.418;7.572;2024-02-26T00:15:56;3.50;;;2.28;;
45887;SDS011;31595;51.418;7.572;2024-02-26T00:18:23;4.35;;;2.80;;
45887;SDS011;31595;51.418;7.572;2024-02-26T00:20:50;3.45;;;2.30;;
45887;SDS011;31595;51.418;7.572;2024-02-26T00:23:17;3.40;;;2.10;;
45887;SDS011;31595;51.418;7.572;2024-02-26T00:25:45;2.97;;;2.30;;
45887;SDS011;31595;51.418;7.572;2024-02-26T00:28:12;3.88;;;2.20;;
45887;SDS011;31595;51.418;7.572;2024-02-26T00:30:39;4.32;;;2.30;;
45887;SDS011;31595;51.418;7.572;2024-02-26T00:33:06;3.22;;;1.90;;
45887;SDS011;31595;51.418;7.572;2024-02-26T00:35:33;3.35;;;2.13;;
45887;SDS011;31595;51.418;7.572;2024-02-26T00:38:00;3.55;;;1.92;;
45887;SDS011;31595;51.418;7.572;2024-02-26T00:40:28;3.53;;;2.17;;
45887;SDS011;31595;51.418;7.572;2024-02-26T00:42:57;2.13;;;1.45;;
45887;SDS011;31595;51.418;7.572;2024-02-26T00:45:23;3.13;;;1.67;;
45887;SDS011;31595;51.418;7.572;2024-02-26T00:47:50;2.83;;;1.80;;
45887;SDS011;31595;51.418;7.572;2024-02-26T00:50:17;2.88;;;1.80;;
45887;SDS011;31595;51.418;7.572;2024-02-26T00:52:44;2.72;;;1.60;;
45887;SDS011;31595;51.418;7.572;2024-02-26T00:55:11;2.17;;;1.52;;
45887;SDS011;31595;51.418;7.572;2024-02-26T00:57:37;2.47;;;1.50;;
45887;SDS011;31595;51.418;7.572;2024-02-26T01:00:08;2.55;;;1.42;;
45887;SDS011;31595;51.418;7.572;2024-02-26T01:02:35;3.10;;;1.70;;
45887;SDS011;31595;51.418;7.572;2024-02-26T01:05:02;3.10;;;1.80;;
45887;SDS011;31595;51.418;7.572;2024-02-26T01:07:29;3.42;;;1.48;;
45887;SDS011;31595;51.418;7.572;2024-02-26T01:10:01;2.60;;;1.60;;
45887;SDS011;31595;51.418;7.572;2024-02-26T01:12:27;2.95;;;1.58;;
45887;SDS011;31595;51.418;7.572;2024-02-26T01:14:54;3.38;;;1.65;;
45887;SDS011;31595;51.418;7.572;2024-02-26T01:17:22;2.47;;;1.52;;
45887;SDS011;31595;51.418;7.572;2024-02-26T01:19:49;2.60;;;1.50;;
45887;SDS011;31595;51.418;7.572;2024-02-26T01:22:16;2.33;;;1.50;;
45887;SDS011;31595;51.418;7.572;2024-02-26T01:24:43;2.53;;;1.60;;
45887;SDS011;31595;51.418;7.572;2024-02-26T01:27:09;2.60;;;1.33;;
45887;SDS011;31595;51.418;7.572;2024-02-26T01:29:36;2.80;;;1.60;;
45887;SDS011;31595;51.418;7.572;2024-02-26T01:32:03;2.15;;;1.30;;
45887;SDS011;31595;51.418;7.572;2024-02-26T01:34:32;2.60;;;1.50;;
45887;SDS011;31595;51.418;7.572;2024-02-26T01:36:59;3.13;;;1.70;;
45887;SDS011;31595;51.418;7.572;2024-02-26T01:39:26;3.00;;;1.70;;
45887;SDS011;31595;51.418;7.572;2024-02-26T01:41:54;2.42;;;1.38;;
45887;SDS011;31595;51.418;7.572;2024-02-26T01:44:21;2.80;;;1.42;;
45887;SDS011;31595;51.418;7.572;2024-02-26T01:46:48;2.25;;;1.58;;
45887;SDS011;31595;51.418;7.572;2024-02-26T01:49:14;3.40;;;1.60;;
45887;SDS011;31595;51.418;7.572;2024-02-26T01:51:43;2.92;;;1.70;;
45887;SDS011;31595;51.418;7.572;2024-02-26T01:54:10;2.97;;;1.90;;
45887;SDS011;31595;51.418;7.572;2024-02-26T01:56:37;3.15;;;1.85;;
45887;SDS011;31595;51.418;7.572;2024-02-26T01:59:04;2.70;;;2.00;;
45887;SDS011;31595;51.418;7.572;2024-02-26T02:01:32;2.75;;;1.90;;
45887;SDS011;31595;51.418;7.572;2024-02-26T02:04:00;2.88;;;1.75;;
45887;SDS011;31595;51.418;7.572;2024-02-26T02:06:27;3.95;;;2.00;;
45887;SDS011;31595;51.418;7.572;2024-02-26T02:08:56;4.20;;;1.70;;
45887;SDS011;31595;51.418;7.572;2024-02-26T02:11:22;2.17;;;1.60;;
45887;SDS011;31595;51.418;7.572;2024-02-26T02:13:49;2.00;;;1.30;;
45887;SDS011;31595;51.418;7.572;2024-02-26T02:16:16;2.65;;;1.60;;
45887;SDS011;31595;51.418;7.572;2024-02-26T02:18:43;2.38;;;1.83;;
45887;SDS011;31595;51.418;7.572;2024-02-26T02:21:11;2.38;;;1.50;;
45887;SDS011;31595;51.418;7.572;2024-02-26T02:23:38;3.25;;;1.67;;
45887;SDS011;31595;51.418;7.572;2024-02-26T02:26:05;2.47;;;1.52;;
45887;SDS011;31595;51.418;7.572;2024-02-26T02:28:32;2.40;;;1.50;;
45887;SDS011;31595;51.418;7.572;2024-02-26T02:30:59;2.70;;;1.63;;
45887;SDS011;31595;51.418;7.572;2024-02-26T02:33:26;2.35;;;1.50;;
45887;SDS011;31595;51.418;7.572;2024-02-26T02:35:53;3.10;;;1.70;;
45887;SDS011;31595;51.418;7.572;2024-02-26T02:38:21;2.55;;;1.67;;
45887;SDS011;31595;51.418;7.572;2024-02-26T02:40:51;3.13;;;1.52;;
45887;SDS011;31595;51.418;7.572;2024-02-26T02:43:18;3.30;;;1.63;;
45887;SDS011;31595;51.418;7.572;2024-02-26T02:45:44;2.58;;;1.60;;
45887;SDS011;31595;51.418;7.572;2024-02-26T02:48:11;3.20;;;1.60;;
45887;SDS011;31595;51.418;7.572;2024-02-26T02:50:38;2.40;;;1.55;;
45887;SDS011;31595;51.418;7.572;2024-02-26T02:53:05;3.80;;;1.80;;
45887;SDS011;31595;51.418;7.572;2024-02-26T02:55:33;1.95;;;1.30;;
45887;SDS011;31595;51.418;7.572;2024-02-26T02:58:00;1.92;;;1.60;;
45887;SDS011;31595;51.418;7.572;2024-02-26T03:00:26;2.25;;;1.50;;
45887;SDS011;31595;51.418;7.572;2024-02-26T03:02:53;2.13;;;1.50;;
45887;SDS011;31595;51.418;7.572;2024-02-26T03:05:20;2.92;;;1.58;;
45887;SDS011;31595;51.418;7.572;2024-02-26T03:07:47;3.67;;;1.73;;
45887;SDS011;31595;51.418;7.572;2024-02-26T03:10:14;3.15;;;1.70;;
45887;SDS011;31595;51.418;7.572;2024-02-26T03:12:42;2.60;;;1.83;;
45887;SDS011;31595;51.418;7.572;2024-02-26T03:15:09;2.55;;;1.40;;
45887;SDS011;31595;51.418;7.572;2024-02-26T03:17:37;3.65;;;1.40;;
45887;SDS011;31595;51.418;7.572;2024-02-26T03:20:04;1.88;;;1.40;;
45887;SDS011;31595;51.418;7.572;2024-02-26T03:22:33;2.90;;;1.50;;
45887;SDS011;31595;51.418;7.572;2024-02-26T03:25:00;2.55;;;1.38;;
45887;SDS011;31595;51.418;7.572;2024-02-26T03:27:27;2.22;;;1.45;;
45887;SDS011;31595;51.418;7.572;2024-02-26T03:29:55;3.33;;;1.45;;
45887;SDS011;31595;51.418;7.572;2024-02-26T03:32:22;3.33;;;1.55;;
45887;SDS011;31595;51.418;7.572;2024-02-26T03:34:49;2.58;;;1.60;;
45887;SDS011;31595;51.418;7.572;2024-02-26T03:37:19;2.97;;;1.80;;
45887;SDS011;31595;51.418;7.572;2024-02-26T03:39:46;3.15;;;1.80;;
45887;SDS011;31595;51.418;7.572;2024-02-26T03:42:13;2.47;;;1.83;;
45887;SDS011;31595;51.418;7.572;2024-02-26T03:44:40;2.17;;;1.60;;
45887;SDS011;31595;51.418;7.572;2024-02-26T03:47:08;2.70;;;1.98;;
45887;SDS011;31595;51.418;7.572;2024-02-26T03:49:35;2.53;;;1.83;;
45887;SDS011;31595;51.418;7.572;2024-02-26T03:52:02;4.85;;;2.00;;
45887;SDS011;31595;51.418;7.572;2024-02-26T03:54:28;3.75;;;1.90;;
45887;SDS011;31595;51.418;7.572;2024-02-26T03:56:55;3.38;;;2.08;;
45887;SDS011;31595;51.418;7.572;2024-02-26T03:59:22;2.78;;;2.10;;
45887;SDS011;31595;51.418;7.572;2024-02-26T04:01:50;3.05;;;1.90;;
45887;SDS011;31595;51.418;7.572;2024-02-26T04:04:18;2.40;;;1.88;;
45887;SDS011;31595;51.418;7.572;2024-02-26T04:06:45;2.80;;;2.10;;
45887;SDS011;31595;51.418;7.572;2024-02-26T04:09:13;2.83;;;2.03;;
45887;SDS011;31595;51.418;7.572;2024-02-26T04:11:40;3.08;;;2.28;;
45887;SDS011;31595;51.418;7.572;2024-02-26T04:14:08;3.45;;;1.90;;
45887;SDS011;31595;51.418;7.572;2024-02-26T04:16:37;3.03;;;2.00;;
45887;SDS011;31595;51.418;7.572;2024-02-26T04:19:04;3.08;;;2.00;;
45887;SDS011;31595;51.418;7.572;2024-02-26T04:21:33;3.45;;;2.08;;
45887;SDS011;31595;51.418;7.572;2024-02-26T04:24:00;3.80;;;1.98;;
45887;SDS011;31595;51.418;7.572;2024-02-26T04:26:27;3.80;;;2.08;;
45887;SDS011;31595;51.418;7.572;2024-02-26T04:28:54;2.97;;;1.85;;
45887;SDS011;31595;51.418;7.572;2024-02-26T04:31:21;3.15;;;2.00;;
45887;SDS011;31595;51.418;7.572;2024-02-26T04:33:47;3.50;;;1.98;;
45887;SDS011;31595;51.418;7.572;2024-02-26T04:36:14;2.78;;;2.10;;
45887;SDS011;31595;51.418;7.572;2024-02-26T04:38:43;2.42;;;1.85;;
45887;SDS011;31595;51.418;7.572;2024-02-26T04:41:09;3.75;;;1.98;;
45887;SDS011;31595;51.418;7.572;2024-02-26T04:43:37;3.75;;;2.10;;
45887;SDS011;31595;51.418;7.572;2024-02-26T04:46:06;2.78;;;1.88;;
45887;SDS011;31595;51.418;7.572;2024-02-26T04:48:34;3.50;;;2.10;;
45887;SDS011;31595;51.418;7.572;2024-02-26T04:51:00;2.72;;;2.05;;
45887;SDS011;31595;51.418;7.572;2024-02-26T04:53:27;4.88;;;2.38;;
45887;SDS011;31595;51.418;7.572;2024-02-26T04:55:55;5.53;;;2.92;;
45887;SDS011;31595;51.418;7.572;2024-02-26T04:58:22;4.65;;;2.45;;
45887;SDS011;31595;51.418;7.572;2024-02-26T05:00:49;2.45;;;2.00;;
45887;SDS011;31595;51.418;7.572;2024-02-26T05:03:16;3.88;;;2.15;;
45887;SDS011;31595;51.418;7.572;2024-02-26T05:05:43;3.67;;;1.92;;
45887;SDS011;31595;51.418;7.572;2024-02-26T05:08:10;2.70;;;2.17;;
45887;SDS011;31595;51.418;7.572;2024-02-26T05:10:36;3.50;;;2.17;;
45887;SDS011;31595;51.418;7.572;2024-02-26T05:13:07;3.17;;;1.95;;
45887;SDS011;31595;51.418;7.572;2024-02-26T05:15:34;3.00;;;2.20;;
45887;SDS011;31595;51.418;7.572;2024-02-26T05:18:01;2.88;;;2.17;;
45887;SDS011;31595;51.418;7.572;2024-02-26T05:20:28;3.28;;;2.60;;
45887;SDS011;31595;51.418;7.572;2024-02-26T05:22:55;3.40;;;2.70;;
45887;SDS011;31595;51.418;7.572;2024-02-26T05:25:24;3.20;;;2.47;;
45887;SDS011;31595;51.418;7.572;2024-02-26T05:27:51;4.22;;;2.47;;
45887;SDS011;31595;51.418;7.572;2024-02-26T05:30:19;3.33;;;2.10;;
45887;SDS011;31595;51.418;7.572;2024-02-26T05:32:46;3.70;;;2.08;;
45887;SDS011;31595;51.418;7.572;2024-02-26T05:35:12;3.28;;;2.03;;
45887;SDS011;31595;51.418;7.572;2024-02-26T05:37:40;4.78;;;2.05;;
45887;SDS011;31595;51.418;7.572;2024-02-26T05:40:07;2.88;;;2.15;;
45887;SDS011;31595;51.418;7.572;2024-02-26T05:42:34;4.10;;;2.25;;
45887;SDS011;31595;51.418;7.572;2024-02-26T05:45:01;3.63;;;1.90;;
45887;SDS011;31595;51.418;7.572;2024-02-26T05:47:33;3.58;;;1.90;;
45887;SDS011;31595;51.418;7.572;2024-02-26T05:50:00;2.50;;;1.90;;
45887;SDS011;31595;51.418;7.572;2024-02-26T05:52:27;3.15;;;2.10;;
45887;SDS011;31595;51.418;7.572;2024-02-26T05:54:54;3.58;;;2.13;;
45887;SDS011;31595;51.418;7.572;2024-02-26T05:57:21;3.22;;;2.35;;
45887;SDS011;31595;51.418;7.572;2024-02-26T05:59:48;3.80;;;2.10;;
45887;SDS011;31595;51.418;7.572;2024-02-26T06:02:15;3.90;;;2.00;;
45887;SDS011;31595;51.418;7.572;2024-02-26T06:04:43;2.70;;;2.28;;
45887;SDS011;31595;51.418;7.572;2024-02-26T06:07:09;3.03;;;2.20;;
45887;SDS011;31595;51.418;7.572;2024-02-26T06:09:36;2.55;;;2.10;;
45887;SDS011;31595;51.418;7.572;2024-02-26T06:12:03;3.25;;;2.13;;
45887;SDS011;31595;51.418;7.572;2024-02-26T06:14:30;3.08;;;2.10;;
45887;SDS011;31595;51.418;7.572;2024-02-26T06:16:57;2.60;;;2.10;;
45887;SDS011;31595;51.418;7.572;2024-02-26T06:19:24;3.72;;;2.30;;
45887;SDS011;31595;51.418;7.572;2024-02-26T06:21:52;3.40;;;2.08;;
45887;SDS011;31595;51.418;7.572;2024-02-26T06:24:19;2.67;;;2.05;;
45887;SDS011;31595;51.418;7.572;2024-02-26T06:26:46;3.08;;;2.00;;
45887;SDS011;31595;51.418;7.572;2024-02-26T06:29:13;2.70;;;1.92;;
45887;SDS011;31595;51.418;7.572;2024-02-26T06:31:40;3.20;;;2.00;;
45887;SDS011;31595;51.418;7.572;2024-02-26T06:34:06;3.40;;;2.10;;
45887;SDS011;31595;51.418;7.572;2024-02-26T06:36:33;3.67;;;1.80;;
45887;SDS011;31595;51.418;7.572;2024-02-26T06:39:02;2.92;;;1.90;;
45887;SDS011;31595;51.418;7.572;2024-02-26T06:41:30;3.25;;;2.22;;
45887;SDS011;31595;51.418;7.572;2024-02-26T06:43:57;2.88;;;2.00;;
45887;SDS011;31595;51.418;7.572;2024-02-26T06:46:24;3.55;;;2.00;;
45887;SDS011;31595;51.418;7.572;2024-02-26T06:48:51;2.47;;;1.95;;
45887;SDS011;31595;51.418;7.572;2024-02-26T06:51:18;2.92;;;2.20;;
45887;SDS011;31595;51.418;7.572;2024-02-26T06:53:45;2.92;;;2.30;;
45887;SDS011;31595;51.418;7.572;2024-02-26T06:56:13;2.70;;;2.03;;
45887;SDS011;31595;51.418;7.572;2024-02-26T06:58:40;3.13;;;2.20;;
45887;SDS011;31595;51.418;7.572;2024-02-26T07:01:07;3.38;;;2.20;;
45887;SDS011;31595;51.418;7.572;2024-02-26T07:03:34;2.67;;;2.10;;
45887;SDS011;31595;51.418;7.572;2024-02-26T07:06:01;2.90;;;2.30;;
45887;SDS011;31595;51.418;7.572;2024-02-26T07:08:28;3.63;;;2.40;;
45887;SDS011;31595;51.418;7.572;2024-02-26T07:10:55;3.92;;;2.50;;
45887;SDS011;31595;51.418;7.572;2024-02-26T07:13:23;3.42;;;2.40;;
45887;SDS011;31595;51.418;7.572;2024-02-26T07:15:50;3.67;;;2.60;;
45887;SDS011;31595;51.418;7.572;2024-02-26T07:18:17;3.22;;;2.60;;
45887;SDS011;31595;51.418;7.572;2024-02-26T07:20:43;3.45;;;2.67;;
45887;SDS011;31595;51.418;7.572;2024-02-26T07:23:10;2.90;;;2.40;;
45887;SDS011;31595;51.418;7.572;2024-02-26T07:25:38;4.80;;;2.42;;
45887;SDS011;31595;51.418;7.572;2024-02-26T07:28:05;5.43;;;2.63;;
45887;SDS011;31595;51.418;7.572;2024-02-26T07:30:33;3.88;;;2.80;;
45887;SDS011;31595;51.418;7.572;2024-02-26T07:33:00;3.97;;;3.00;;
45887;SDS011;31595;51.418;7.572;2024-02-26T07:35:27;5.32;;;3.22;;
45887;SDS011;31595;51.418;7.572;2024-02-26T07:37:54;3.90;;;3.10;;
45887;SDS011;31595;51.418;7.572;2024-02-26T07:40:20;4.05;;;2.95;;
45887;SDS011;31595;51.418;7.572;2024-02-26T07:42:47;4.78;;;3.33;;
45887;SDS011;31595;51.418;7.572;2024-02-26T07:45:14;4.15;;;3.03;;
45887;SDS011;31595;51.418;7.572;2024-02-26T07:47:46;5.15;;;3.17;;
45887;SDS011;31595;51.418;7.572;2024-02-26T07:50:13;4.20;;;3.20;;
45887;SDS011;31595;51.418;7.572;2024-02-26T07:52:40;5.00;;;3.42;;
45887;SDS011;31595;51.418;7.572;2024-02-26T07:55:07;5.05;;;3.05;;
45887;SDS011;31595;51.418;7.572;2024-02-26T07:57:34;5.50;;;3.85;;
45887;SDS011;31595;51.418;7.572;2024-02-26T08:00:01;5.00;;;3.42;;
45887;SDS011;31595;51.418;7.572;2024-02-26T08:02:28;5.43;;;3.45;;
45887;SDS011;31595;51.418;7.572;2024-02-26T08:04:56;4.75;;;3.15;;
45887;SDS011;31595;51.418;7.572;2024-02-26T08:07:23;5.03;;;3.17;;
45887;SDS011;31595;51.418;7.572;2024-02-26T08:09:49;4.72;;;3.38;;
45887;SDS011;31595;51.418;7.572;2024-02-26T08:12:16;4.82;;;3.05;;
45887;SDS011;31595;51.418;7.572;2024-02-26T08:14:43;6.75;;;3.58;;
45887;SDS011;31595;51.418;7.572;2024-02-26T08:17:10;5.43;;;3.10;;
45887;SDS011;31595;51.418;7.572;2024-02-26T08:19:37;4.95;;;3.30;;
45887;SDS011;31595;51.418;7.572;2024-02-26T08:22:05;4.97;;;2.90;;
45887;SDS011;31595;51.418;7.572;2024-02-26T08:24:32;4.15;;;2.83;;
45887;SDS011;31595;51.418;7.572;2024-02-26T08:26:59;3.25;;;2.60;;
45887;SDS011;31595;51.418;7.572;2024-02-26T08:29:25;12.68;;;8.82;;
45887;SDS011;31595;51.418;7.572;2024-02-26T08:31:52;39.58;;;23.17;;
45887;SDS011;31595;51.418;7.572;2024-02-26T08:34:19;15.32;;;12.27;;
45887;SDS011;31595;51.418;7.572;2024-02-26T08:36:46;6.57;;;5.70;;
45887;SDS011;31595;51.418;7.572;2024-02-26T08:39:15;6.00;;;4.70;;
45887;SDS011;31595;51.418;7.572;2024-02-26T08:41:42;3.60;;;3.13;;
45887;SDS011;31595;51.418;7.572;2024-02-26T08:44:09;3.60;;;3.17;;
45887;SDS011;31595;51.418;7.572;2024-02-26T08:46:36;4.82;;;3.65;;
45887;SDS011;31595;51.418;7.572;2024-02-26T08:49:03;4.78;;;3.30;;
45887;SDS011;31595;51.418;7.572;2024-02-26T08:51:30;4.75;;;2.88;;
45887;SDS011;31595;51.418;7.572;2024-02-26T08:53:57;4.53;;;2.70;;
45887;SDS011;31595;51.418;7.572;2024-02-26T08:56:25;11.52;;;7.82;;
45887;SDS011;31595;51.418;7.572;2024-02-26T08:58:52;22.98;;;20.67;;
45887;SDS011;31595;51.418;7.572;2024-02-26T09:01:22;5.35;;;4.85;;
45887;SDS011;31595;51.418;7.572;2024-02-26T09:03:49;4.72;;;3.10;;
45887;SDS011;31595;51.418;7.572;2024-02-26T09:06:16;5.43;;;3.97;;
45887;SDS011;31595;51.418;7.572;2024-02-26T09:08:43;4.80;;;3.75;;
45887;SDS011;31595;51.418;7.572;2024-02-26T09:11:10;7.57;;;6.18;;
45887;SDS011;31595;51.418;7.572;2024-02-26T09:13:38;5.13;;;3.75;;
45887;SDS011;31595;51.418;7.572;2024-02-26T09:16:05;6.65;;;3.70;;
45887;SDS011;31595;51.418;7.572;2024-02-26T09:18:32;4.45;;;3.38;;
45887;SDS011;31595;51.418;7.572;2024-02-26T09:20:59;5.13;;;3.58;;
45887;SDS011;31595;51.418;7.572;2024-02-26T09:23:25;5.60;;;3.88;;
45887;SDS011;31595;51.418;7.572;2024-02-26T09:25:52;9.50;;;7.43;;
45887;SDS011;31595;51.418;7.572;2024-02-26T09:28:19;7.45;;;6.57;;
45887;SDS011;31595;51.418;7.572;2024-02-26T09:30:47;9.98;;;7.47;;
45887;SDS011;31595;51.418;7.572;2024-02-26T09:33:14;10.88;;;7.28;;
45887;SDS011;31595;51.418;7.572;2024-02-26T09:35:41;6.78;;;4.53;;
45887;SDS011;31595;51.418;7.572;2024-02-26T09:38:08;21.20;;;13.63;;
45887;SDS011;31595;51.418;7.572;2024-02-26T09:40:35;11.70;;;7.07;;
45887;SDS011;31595;51.418;7.572;2024-02-26T09:43:03;6.70;;;4.50;;
45887;SDS011;31595;51.418;7.572;2024-02-26T09:45:31;22.92;;;16.73;;
45887;SDS011;31595;51.418;7.572;2024-02-26T09:48:00;11.50;;;8.40;;
45887;SDS011;31595;51.418;7.572;2024-02-26T09:50:29;32.75;;;21.25;;
45887;SDS011;31595;51.418;7.572;2024-02-26T09:52:56;6.57;;;4.95;;
45887;SDS011;31595;51.418;7.572;2024-02-26T09:55:25;7.25;;;5.85;;
45887;SDS011;31595;51.418;7.572;2024-02-26T09:57:51;4.97;;;3.85;;
45887;SDS011;31595;51.418;7.572;2024-02-26T10:00:18;23.13;;;16.08;;
45887;SDS011;31595;51.418;7.572;2024-02-26T10:02:45;12.52;;;8.93;;
45887;SDS011;31595;51.418;7.572;2024-02-26T10:05:14;6.10;;;3.92;;
45887;SDS011;31595;51.418;7.572;2024-02-26T10:07:43;3.97;;;2.95;;
45887;SDS011;31595;51.418;7.572;2024-02-26T10:10:10;5.10;;;3.65;;
45887;SDS011;31595;51.418;7.572;2024-02-26T10:12:37;6.80;;;4.97;;
45887;SDS011;31595;51.418;7.572;2024-02-26T10:15:04;10.77;;;7.95;;
45887;SDS011;31595;51.418;7.572;2024-02-26T10:17:31;19.58;;;14.02;;
45887;SDS011;31595;51.418;7.572;2024-02-26T10:20:10;25.52;;;18.65;;
45887;SDS011;31595;51.418;7.572;2024-02-26T10:22:39;9.48;;;7.15;;
45887;SDS011;31595;51.418;7.572;2024-02-26T10:25:06;20.73;;;15.10;;
45887;SDS011;31595;51.418;7.572;2024-02-26T10:27:33;25.20;;;18.42;;
45887;SDS011;31595;51.418;7.572;2024-02-26T10:30:02;14.63;;;10.38;;
45887;SDS011;31595;51.418;7.572;2024-02-26T10:32:29;11.43;;;8.70;;
45887;SDS011;31595;51.418;7.572;2024-02-26T10:34:55;9.60;;;7.35;;
45887;SDS011;31595;51.418;7.572;2024-02-26T10:37:22;12.98;;;9.98;;
45887;SDS011;31595;51.418;7.572;2024-02-26T10:39:52;9.82;;;6.88;;
45887;SDS011;31595;51.418;7.572;2024-02-26T10:42:18;7.88;;;5.90;;
45887;SDS011;31595;51.418;7.572;2024-02-26T10:44:45;9.90;;;7.15;;
45887;SDS011;31595;51.418;7.572;2024-02-26T10:47:14;18.65;;;14.27;;
45887;SDS011;31595;51.418;7.572;2024-02-26T10:49:44;10.68;;;8.02;;
45887;SDS011;31595;51.418;7.572;2024-02-26T10:52:11;8.63;;;6.63;;
45887;SDS011;31595;51.418;7.572;2024-02-26T10:54:39;10.70;;;8.30;;
45887;SDS011;31595;51.418;7.572;2024-02-26T10:57:10;20.77;;;14.40;;
45887;SDS011;31595;51.418;7.572;2024-02-26T10:59:37;8.75;;;6.25;;
45887;SDS011;31595;51.418;7.572;2024-02-26T11:02:06;12.25;;;8.45;;
45887;SDS011;31595;51.418;7.572;2024-02-26T11:04:33;11.40;;;8.07;;
45887;SDS011;31595;51.418;7.572;2024-02-26T11:07:00;9.55;;;7.35;;
45887;SDS011;31595;51.418;7.572;2024-02-26T11:09:27;7.70;;;6.72;;
45887;SDS011;31595;51.418;7.572;2024-02-26T11:11:54;8.88;;;6.18;;
45887;SDS011;31595;51.418;7.572;2024-02-26T11:14:25;16.05;;;11.52;;
45887;SDS011;31595;51.418;7.572;2024-02-26T11:16:52;10.73;;;8.70;;
45887;SDS011;31595;51.418;7.572;2024-02-26T11:19:20;9.40;;;7.35;;
45887;SDS011;31595;51.418;7.572;2024-02-26T11:21:47;10.48;;;8.45;;
45887;SDS011;31595;51.418;7.572;2024-02-26T11:24:14;11.48;;;8.32;;
45887;SDS011;31595;51.418;7.572;2024-02-26T11:26:45;8.43;;;7.40;;
45887;SDS011;31595;51.418;7.572;2024-02-26T11:31:41;10.20;;;7.35;;
45887;SDS011;31595;51.418;7.572;2024-02-26T11:34:08;8.23;;;6.78;;
45887;SDS011;31595;51.418;7.572;2024-02-26T11:36:35;8.55;;;7.40;;
45887;SDS011;31595;51.418;7.572;2024-02-26T11:39:03;8.05;;;7.05;;
45887;SDS011;31595;51.418;7.572;2024-02-26T11:41:30;9.52;;;8.27;;
45887;SDS011;31595;51.418;7.572;2024-02-26T11:43:57;9.30;;;6.95;;
45887;SDS011;31595;51.418;7.572;2024-02-26T11:46:26;8.68;;;7.35;;
45887;SDS011;31595;51.418;7.572;2024-02-26T11:48:55;7.75;;;6.55;;
45887;SDS011;31595;51.418;7.572;2024-02-26T11:51:24;7.43;;;6.10;;
45887;SDS011;31595;51.418;7.572;2024-02-26T11:53:51;6.05;;;4.85;;
45887;SDS011;31595;51.418;7.572;2024-02-26T11:56:21;7.28;;;5.53;;
45887;SDS011;31595;51.418;7.572;2024-02-26T11:58:53;5.95;;;4.53;;
45887;SDS011;31595;51.418;7.572;2024-02-26T12:04:07;7.03;;;4.95;;
45887;SDS011;31595;51.418;7.572;2024-02-26T12:06:47;6.22;;;4.47;;
45887;SDS011;31595;51.418;7.572;2024-02-26T12:11:56;5.13;;;4.40;;
45887;SDS011;31595;51.418;7.572;2024-02-26T12:14:25;6.20;;;5.25;;
45887;SDS011;31595;51.418;7.572;2024-02-26T12:16:51;6.65;;;5.72;;
45887;SDS011;31595;51.418;7.572;2024-02-26T12:19:20;6.15;;;4.80;;
45887;SDS011;31595;51.418;7.572;2024-02-26T12:21:50;4.97;;;4.45;;
45887;SDS011;31595;51.418;7.572;2024-02-26T12:24:18;6.70;;;4.55;;
45887;SDS011;31595;51.418;7.572;2024-02-26T12:26:45;6.97;;;5.75;;
45887;SDS011;31595;51.418;7.572;2024-02-26T12:29:12;7.35;;;5.65;;
45887;SDS011;31595;51.418;7.572;2024-02-26T12:31:39;5.80;;;5.20;;
45887;SDS011;31595;51.418;7.572;2024-02-26T12:34:06;5.43;;;3.53;;
45887;SDS011;31595;51.418;7.572;2024-02-26T12:36:36;6.80;;;6.10;;
45887;SDS011;31595;51.418;7.572;2024-02-26T12:39:03;5.65;;;4.20;;
45887;SDS011;31595;51.418;7.572;2024-02-26T12:41:31;5.43;;;4.10;;
45887;SDS011;31595;51.418;7.572;2024-02-26T12:43:58;8.10;;;5.40;;
45887;SDS011;31595;51.418;7.572;2024-02-26T12:46:25;7.00;;;6.22;;
45887;SDS011;31595;51.418;7.572;2024-02-26T12:48:54;7.47;;;5.68;;
45887;SDS011;31595;51.418;7.572;2024-02-26T12:51:23;7.50;;;5.30;;
45887;SDS011;31595;51.418;7.572;2024-02-26T12:53:51;6.55;;;4.43;;
45887;SDS011;31595;51.418;7.572;2024-02-26T12:56:18;6.55;;;5.20;;
45887;SDS011;31595;51.418;7.572;2024-02-26T12:58:45;9.23;;;6.65;;
45887;SDS011;31595;51.418;7.572;2024-02-26T13:01:14;8.65;;;6.18;;
45887;SDS011;31595;51.418;7.572;2024-02-26T13:03:41;7.25;;;5.47;;
45887;SDS011;31595;51.418;7.572;2024-02-26T13:06:08;7.63;;;6.13;;
45887;SDS011;31595;51.418;7.572;2024-02-26T13:08:36;9.15;;;8.13;;
45887;SDS011;31595;51.418;7.572;2024-02-26T13:11:04;13.02;;;10.23;;
45887;SDS011;31595;51.418;7.572;2024-02-26T13:13:31;9.50;;;6.22;;
45887;SDS011;31595;51.418;7.572;2024-02-26T13:16:01;12.65;;;9.48;;
45887;SDS011;31595;51.418;7.572;2024-02-26T13:18:28;8.55;;;6.72;;
45887;SDS011;31595;51.418;7.572;2024-02-26T13:21:05;20.13;;;14.93;;
45887;SDS011;31595;51.418;7.572;2024-02-26T13:23:32;22.98;;;16.63;;
45887;SDS011;31595;51.418;7.572;2024-02-26T13:25:59;8.38;;;6.75;;
45887;SDS011;31595;51.418;7.572;2024-02-26T13:28:27;6.82;;;6.03;;
45887;SDS011;31595;51.418;7.572;2024-02-26T13:30:54;9.13;;;7.25;;
45887;SDS011;31595;51.418;7.572;2024-02-26T13:33:22;6.88;;;5.43;;
45887;SDS011;31595;51.418;7.572;2024-02-26T13:35:49;8.02;;;6.38;;
45887;SDS011;31595;51.418;7.572;2024-02-26T13:38:16;6.28;;;5.13;;
45887;SDS011;31595;51.418;7.572;2024-02-26T13:40:43;6.10;;;5.18;;
45887;SDS011;31595;51.418;7.572;2024-02-26T13:43:10;7.38;;;5.60;;
45887;SDS011;31595;51.418;7.572;2024-02-26T13:45:38;5.90;;;5.22;;
45887;SDS011;31595;51.418;7.572;2024-02-26T13:48:06;6.25;;;5.15;;
45887;SDS011;31595;51.418;7.572;2024-02-26T13:50:33;6.35;;;5.00;;
45887;SDS011;31595;51.418;7.572;2024-02-26T13:53:00;7.22;;;5.30;;
45887;SDS011;31595;51.418;7.572;2024-02-26T13:55:27;6.82;;;4.95;;
45887;SDS011;31595;51.418;7.572;2024-02-26T13:57:55;6.45;;;4.68;;
45887;SDS011;31595;51.418;7.572;2024-02-26T14:00:22;7.40;;;5.30;;
45887;SDS011;31595;51.418;7.572;2024-02-26T14:02:51;6.22;;;4.72;;
45887;SDS011;31595;51.418;7.572;2024-02-26T14:05:18;7.95;;;5.43;;
45887;SDS011;31595;51.418;7.572;2024-02-26T14:07:45;5.93;;;4.85;;
45887;SDS011;31595;51.418;7.572;2024-02-26T14:10:12;6.40;;;4.90;;
45887;SDS011;31595;51.418;7.572;2024-02-26T14:12:39;6.78;;;4.63;;
45887;SDS011;31595;51.418;7.572;2024-02-26T14:15:06;9.73;;;5.78;;
45887;SDS011;31595;51.418;7.572;2024-02-26T14:17:33;6.07;;;4.70;;
45887;SDS011;31595;51.418;7.572;2024-02-26T14:20:01;6.78;;;4.35;;
45887;SDS011;31595;51.418;7.572;2024-02-26T14:22:28;6.97;;;4.88;;
45887;SDS011;31595;51.418;7.572;2024-02-26T14:24:56;6.57;;;4.90;;
45887;SDS011;31595;51.418;7.572;2024-02-26T14:27:22;5.80;;;4.57;;
45887;SDS011;31595;51.418;7.572;2024-02-26T14:29:49;5.78;;;4.72;;
45887;SDS011;31595;51.418;7.572;2024-02-26T14:32:16;8.43;;;6.10;;
45887;SDS011;31595;51.418;7.572;2024-02-26T14:34:43;10.23;;;7.55;;
45887;SDS011;31595;51.418;7.572;2024-02-26T14:37:11;9.63;;;6.97;;
45887;SDS011;31595;51.418;7.572;2024-02-26T14:39:38;9.15;;;7.13;;
45887;SDS011;31595;51.418;7.572;2024-02-26T14:42:05;16.00;;;8.70;;
45887;SDS011;31595;51.418;7.572;2024-02-26T14:44:32;14.82;;;7.15;;
45887;SDS011;31595;51.418;7.572;2024-02-26T14:46:58;10.35;;;7.30;;
45887;SDS011;31595;51.418;7.572;2024-02-26T14:49:25;9.55;;;6.88;;
45887;SDS011;31595;51.418;7.572;2024-02-26T14:51:53;7.60;;;6.40;;
45887;SDS011;31595;51.418;7.572;2024-02-26T14:54:21;7.57;;;6.07;;